createdAt,value
2022-10-20T00:02:20.398Z,9.07
2022-10-20T00:05:00.420Z,7.53
2022-10-20T00:07:47.440Z,8.20
2022-10-20T00:10:27.402Z,8.67
2022-10-20T00:13:15.369Z,6.60
2022-10-20T00:16:00.441Z,6.37
2022-10-20T00:18:48.387Z,8.17
2022-10-20T00:21:39.377Z,10.53
2022-10-20T00:24:22.626Z,7.30
2022-10-20T00:27:09.388Z,8.10
2022-10-20T00:29:50.032Z,8.50
2022-10-20T00:32:39.401Z,6.23
2022-10-20T00:35:21.212Z,6.23
2022-10-20T00:38:07.453Z,8.10
2022-10-20T00:40:48.066Z,6.87
2022-10-20T00:43:35.358Z,6.77
2022-10-20T00:46:36.408Z,7.47
2022-10-20T00:49:27.435Z,6.23
2022-10-20T00:52:16.386Z,6.37
2022-10-20T00:54:57.440Z,5.30
2022-10-20T00:57:45.386Z,7.13
2022-10-20T01:00:26.432Z,8.00
2022-10-20T01:03:21.406Z,5.50
2022-10-20T01:06:01.442Z,5.17
2022-10-20T01:08:48.418Z,7.23
2022-10-20T01:12:23.397Z,6.30
2022-10-20T01:15:36.379Z,6.17
2022-10-20T01:19:05.386Z,6.77
2022-10-20T01:22:44.380Z,7.07
2022-10-20T01:26:30.097Z,6.87
2022-10-20T01:29:35.876Z,7.03
2022-10-20T01:32:49.439Z,6.70
2022-10-20T01:35:43.203Z,8.97
2022-10-20T01:39:04.397Z,11.73
2022-10-20T01:42:05.378Z,9.77
2022-10-20T01:44:47.756Z,9.83
2022-10-20T01:47:36.614Z,9.47
2022-10-20T01:50:25.603Z,10.60
2022-10-20T01:53:13.438Z,9.27
2022-10-20T01:55:59.600Z,7.63
2022-10-20T01:59:07.609Z,13.37
2022-10-20T02:02:13.451Z,10.10
2022-10-20T02:05:18.391Z,7.90
2022-10-20T02:08:13.392Z,16.43
2022-10-20T02:11:01.478Z,8.20
2022-10-20T02:13:53.411Z,9.83
2022-10-20T02:16:48.472Z,10.37
2022-10-20T02:19:35.476Z,8.73
2022-10-20T02:22:25.433Z,8.53
2022-10-20T02:25:06.465Z,9.83
2022-10-20T02:27:55.461Z,7.63
2022-10-20T02:30:44.431Z,10.37
2022-10-20T02:33:33.414Z,6.13
2022-10-20T02:36:33.432Z,8.00
2022-10-20T02:39:14.091Z,8.20
2022-10-20T02:42:01.443Z,12.23
2022-10-20T02:44:42.107Z,6.40
2022-10-20T02:47:28.453Z,7.70
2022-10-20T02:50:09.698Z,7.23
2022-10-20T02:52:56.433Z,6.77
2022-10-20T02:55:37.301Z,7.87
2022-10-20T02:58:24.431Z,6.83
2022-10-20T03:01:05.325Z,8.90
2022-10-20T03:03:52.478Z,7.97
2022-10-20T03:06:39.459Z,11.00
2022-10-20T03:09:19.478Z,8.40
2022-10-20T03:12:06.426Z,8.97
2022-10-20T03:14:46.741Z,10.10
2022-10-20T03:17:33.582Z,8.23
2022-10-20T03:20:21.438Z,9.80
2022-10-20T03:23:08.439Z,7.90
2022-10-20T03:25:55.445Z,8.13
2022-10-20T03:28:42.465Z,8.00
2022-10-20T03:31:29.455Z,8.37
2022-10-20T03:34:10.445Z,7.60
2022-10-20T03:36:57.454Z,7.93
2022-10-20T03:39:38.096Z,6.87
2022-10-20T03:42:24.501Z,9.67
2022-10-20T03:45:05.971Z,12.20
2022-10-20T03:47:52.493Z,7.67
2022-10-20T03:50:33.112Z,8.13
2022-10-20T03:53:19.475Z,8.47
2022-10-20T03:56:05.509Z,9.23
2022-10-20T03:58:52.509Z,7.63
2022-10-20T04:01:42.529Z,10.63
2022-10-20T04:04:22.533Z,7.90
2022-10-20T04:07:09.485Z,8.13
2022-10-20T04:09:49.624Z,11.67
2022-10-20T04:12:37.948Z,8.93
2022-10-20T04:15:18.688Z,6.40
2022-10-20T04:18:05.452Z,7.33
2022-10-20T04:20:45.546Z,8.33
2022-10-20T04:23:32.483Z,9.97
2022-10-20T04:26:19.547Z,7.17
2022-10-20T04:29:06.487Z,7.97
2022-10-20T04:31:54.544Z,8.00
2022-10-20T04:34:36.433Z,9.83
2022-10-20T04:37:23.506Z,7.23
2022-10-20T04:40:04.727Z,13.63
2022-10-20T04:42:51.490Z,6.47
2022-10-20T04:45:32.194Z,7.73
2022-10-20T04:48:19.498Z,8.23
2022-10-20T04:51:17.517Z,6.70
2022-10-20T04:56:52.785Z,7.10
2022-10-20T04:59:32.550Z,8.10
2022-10-20T05:02:19.485Z,6.43
2022-10-20T05:05:06.502Z,10.40
2022-10-20T05:07:53.500Z,7.37
2022-10-20T05:10:36.600Z,8.30
2022-10-20T05:13:23.492Z,10.63
2022-10-20T05:16:10.501Z,7.23
2022-10-20T05:19:00.527Z,9.83
2022-10-20T05:21:47.498Z,11.43
2022-10-20T05:24:48.512Z,9.87
2022-10-20T05:27:35.514Z,12.07
2022-10-20T05:30:23.518Z,7.63
2022-10-20T05:33:11.515Z,7.80
2022-10-20T05:35:51.559Z,9.80
2022-10-20T05:38:38.507Z,7.27
2022-10-20T05:41:32.118Z,11.97
2022-10-20T05:44:15.169Z,7.50
2022-10-20T05:47:01.504Z,10.10
2022-10-20T05:49:42.206Z,9.27
2022-10-20T05:52:28.532Z,7.50
2022-10-20T05:55:09.896Z,9.17
2022-10-20T05:57:56.537Z,8.23
2022-10-20T06:00:48.519Z,9.93
2022-10-20T06:03:28.604Z,10.37
2022-10-20T06:06:15.716Z,9.17
2022-10-20T06:08:55.634Z,7.87
2022-10-20T06:11:43.539Z,10.90
2022-10-20T06:14:25.752Z,7.77
2022-10-20T06:17:12.544Z,8.73
2022-10-20T06:19:59.523Z,7.83
2022-10-20T06:22:46.540Z,9.90
2022-10-20T06:25:26.663Z,10.03
2022-10-20T06:28:13.515Z,11.83
2022-10-20T06:31:00.549Z,11.80
2022-10-20T06:33:41.963Z,9.43
2022-10-20T06:36:30.552Z,10.03
2022-10-20T06:39:24.572Z,11.13
2022-10-20T06:42:12.329Z,11.03
2022-10-20T06:44:55.034Z,20.07
2022-10-20T06:47:44.521Z,11.17
2022-10-20T06:50:25.395Z,14.07
2022-10-20T06:53:13.976Z,13.73
2022-10-20T06:56:06.223Z,13.00
2022-10-20T06:58:55.552Z,12.80
2022-10-20T07:01:45.662Z,13.97
2022-10-20T07:04:25.695Z,10.83
2022-10-20T07:07:12.544Z,13.03
2022-10-20T07:09:52.616Z,10.20
2022-10-20T07:12:40.556Z,14.23
2022-10-20T07:15:20.645Z,10.20
2022-10-20T07:18:07.671Z,9.70
2022-10-20T07:20:54.576Z,13.70
2022-10-20T07:23:36.838Z,12.60
2022-10-20T07:26:34.567Z,12.93
2022-10-20T07:29:15.211Z,12.77
2022-10-20T07:32:02.573Z,12.80
2022-10-20T07:34:43.336Z,11.73
2022-10-20T07:37:30.584Z,12.07
2022-10-20T07:40:12.001Z,13.90
2022-10-20T07:42:58.582Z,12.57
2022-10-20T07:45:52.769Z,13.53
2022-10-20T07:48:40.563Z,12.90
2022-10-20T07:51:36.570Z,13.67
2022-10-20T07:54:17.651Z,13.60
2022-10-20T07:57:06.708Z,16.27
2022-10-20T07:59:47.208Z,13.13
2022-10-20T08:02:33.672Z,13.80
2022-10-20T08:05:14.324Z,13.67
2022-10-20T08:08:00.586Z,14.57
2022-10-20T08:10:47.584Z,10.73
2022-10-20T08:13:27.736Z,17.20
2022-10-20T08:16:21.359Z,11.37
2022-10-20T08:19:15.647Z,11.83
2022-10-20T08:22:02.581Z,12.80
2022-10-20T08:24:43.651Z,17.47
2022-10-20T08:27:30.602Z,13.20
2022-10-20T08:30:23.505Z,21.20
2022-10-20T08:33:10.620Z,13.07
2022-10-20T08:35:57.591Z,12.50
2022-10-20T08:38:39.575Z,11.70
2022-10-20T08:41:55.392Z,12.40
2022-10-20T08:44:43.836Z,16.00
2022-10-20T08:47:48.609Z,15.53
2022-10-20T08:50:31.232Z,18.13
2022-10-20T08:53:17.623Z,28.33
2022-10-20T08:56:05.618Z,13.13
2022-10-20T08:58:51.703Z,13.47
2022-10-20T09:01:43.639Z,13.37
2022-10-20T09:04:30.790Z,12.37
2022-10-20T09:07:41.625Z,15.33
2022-10-20T09:10:41.608Z,10.53
2022-10-20T09:13:28.667Z,11.80
2022-10-20T09:16:40.491Z,14.13
2022-10-20T09:19:28.512Z,12.00
2022-10-20T09:22:20.814Z,11.27
2022-10-20T09:25:14.662Z,11.60
2022-10-20T09:28:03.623Z,16.17
2022-10-20T09:30:52.667Z,11.23
2022-10-20T09:33:41.998Z,12.30
2022-10-20T09:36:26.607Z,12.10
2022-10-20T09:39:30.492Z,13.53
2022-10-20T09:42:25.632Z,11.33
2022-10-20T09:45:28.732Z,10.30
2022-10-20T09:48:27.700Z,10.23
2022-10-20T09:51:24.660Z,14.10
2022-10-20T09:54:12.699Z,12.33
2022-10-20T09:57:09.853Z,10.63
2022-10-20T09:59:54.701Z,11.73
2022-10-20T10:02:43.649Z,15.73
2022-10-20T10:05:34.729Z,10.73
2022-10-20T10:08:16.590Z,14.03
2022-10-20T10:11:25.657Z,10.43
2022-10-20T10:14:06.318Z,11.47
2022-10-20T10:16:56.685Z,12.53
2022-10-20T10:19:37.802Z,12.17
2022-10-20T10:22:26.664Z,11.57
2022-10-20T10:25:27.660Z,10.37
2022-10-20T10:31:29.680Z,11.30
2022-10-20T10:34:25.649Z,10.47
2022-10-20T10:37:18.001Z,10.40
2022-10-20T10:39:58.652Z,17.83
2022-10-20T10:42:59.664Z,12.40
2022-10-20T10:46:03.788Z,11.37
2022-10-20T10:49:12.967Z,14.03
2022-10-20T10:52:37.670Z,10.33
2022-10-20T10:55:57.699Z,14.67
2022-10-20T10:59:05.792Z,12.20
2022-10-20T11:02:48.674Z,10.83
2022-10-20T11:05:39.776Z,10.37
2022-10-20T11:09:09.730Z,12.30
2022-10-20T11:12:55.704Z,10.33
2022-10-20T11:16:19.694Z,12.93
2022-10-20T11:19:49.760Z,12.73
2022-10-20T11:23:26.768Z,16.73
2022-10-20T11:26:30.873Z,13.83
2022-10-20T11:29:49.087Z,16.90
2022-10-20T11:32:46.835Z,16.80
2022-10-20T11:36:00.846Z,12.87
2022-10-20T11:39:22.750Z,14.77
2022-10-20T11:42:35.091Z,13.13
2022-10-20T11:45:51.687Z,15.20
2022-10-20T11:48:52.103Z,11.00
2022-10-20T11:51:44.887Z,14.20
2022-10-20T11:55:15.730Z,13.80
2022-10-20T11:58:41.688Z,14.67
2022-10-20T12:01:59.753Z,13.47
2022-10-20T12:05:36.910Z,14.87
2022-10-20T12:08:34.624Z,12.77
2022-10-20T12:11:40.741Z,11.63
2022-10-20T12:14:33.175Z,15.13
2022-10-20T12:17:50.762Z,12.60
2022-10-20T12:20:37.748Z,12.40
2022-10-20T12:23:51.666Z,11.13
2022-10-20T12:26:44.608Z,11.90
2022-10-20T12:29:43.726Z,11.50
2022-10-20T12:32:36.881Z,14.80
2022-10-20T12:35:23.725Z,12.57
2022-10-20T12:38:05.393Z,10.80
2022-10-20T12:41:11.742Z,15.60
2022-10-20T12:44:02.522Z,15.97
2022-10-20T12:46:56.766Z,12.73
2022-10-20T12:50:14.786Z,14.03
2022-10-20T12:52:54.812Z,14.97
2022-10-20T12:55:44.748Z,12.40
2022-10-20T12:58:24.858Z,10.87
2022-10-20T13:01:18.818Z,14.20
2022-10-20T13:03:58.804Z,15.33
2022-10-20T13:06:48.331Z,14.00
2022-10-20T13:09:36.747Z,22.47
2022-10-20T13:12:29.946Z,16.63
2022-10-20T13:15:25.742Z,14.27
2022-10-20T13:18:18.718Z,15.80
2022-10-20T13:21:20.767Z,16.80
2022-10-20T13:24:38.902Z,16.67
2022-10-20T13:27:23.833Z,18.70
2022-10-20T13:30:17.772Z,16.00
2022-10-20T13:33:58.830Z,14.07
2022-10-20T13:37:31.764Z,14.77
2022-10-20T13:40:36.732Z,13.73
2022-10-20T13:43:46.307Z,16.30
2022-10-20T13:47:23.787Z,16.70
2022-10-20T13:50:28.887Z,16.03
2022-10-20T13:53:27.841Z,17.63
2022-10-20T13:56:35.778Z,16.30
2022-10-20T13:59:28.799Z,19.87
2022-10-20T14:02:32.089Z,23.70
2022-10-20T14:05:26.781Z,18.67
2022-10-20T14:08:14.705Z,21.93
2022-10-20T14:11:14.819Z,21.13
2022-10-20T14:13:59.342Z,18.27
2022-10-20T14:16:46.792Z,21.70
2022-10-20T14:19:36.780Z,25.57
2022-10-20T14:22:26.831Z,25.20
2022-10-20T14:25:16.793Z,28.37
2022-10-20T14:28:00.967Z,30.57
2022-10-20T14:30:48.813Z,37.40
2022-10-20T14:33:28.845Z,26.23
2022-10-20T14:36:30.819Z,26.93
2022-10-20T14:39:10.856Z,32.00
2022-10-20T14:41:59.791Z,29.47
2022-10-20T14:44:46.819Z,26.27
2022-10-20T14:47:39.982Z,25.33
2022-10-20T14:50:54.015Z,26.80
2022-10-20T14:53:34.720Z,22.73
2022-10-20T14:56:37.849Z,23.23
2022-10-20T14:59:23.167Z,24.10
2022-10-20T15:02:24.807Z,22.27
2022-10-20T15:05:43.856Z,20.07
2022-10-20T15:08:41.908Z,19.37
2022-10-20T15:11:34.856Z,19.53
2022-10-20T15:14:22.959Z,18.10
2022-10-20T15:17:09.828Z,16.37
2022-10-20T15:19:56.951Z,19.97
2022-10-20T15:22:37.986Z,20.47
2022-10-20T15:25:24.840Z,17.97
2022-10-20T15:28:06.837Z,20.27
2022-10-20T15:30:53.854Z,18.67
2022-10-20T15:33:40.802Z,16.67
2022-10-20T15:36:34.841Z,17.80
2022-10-20T15:39:15.501Z,18.60
2022-10-20T15:42:01.812Z,21.83
2022-10-20T15:44:48.835Z,25.07
2022-10-20T15:47:28.895Z,19.87
2022-10-20T15:50:19.542Z,18.50
2022-10-20T15:53:08.828Z,17.60
2022-10-20T15:55:55.855Z,20.03
2022-10-20T15:58:39.654Z,20.27
2022-10-20T16:01:28.948Z,26.50
2022-10-20T16:04:32.841Z,24.57
2022-10-20T16:07:19.900Z,21.00
2022-10-20T16:10:06.858Z,23.50
2022-10-20T16:12:48.249Z,26.07
2022-10-20T16:15:34.850Z,22.17
2022-10-20T16:18:15.505Z,21.30
2022-10-20T16:21:01.840Z,24.93
2022-10-20T16:23:44.931Z,18.87
2022-10-20T16:26:31.890Z,19.87
2022-10-20T16:29:18.897Z,17.40
2022-10-20T16:32:05.867Z,17.17
2022-10-20T16:34:52.887Z,22.70
2022-10-20T16:37:34.135Z,15.90
2022-10-20T16:40:20.859Z,22.50
2022-10-20T16:43:01.119Z,18.43
2022-10-20T16:45:47.873Z,17.70
2022-10-20T16:48:37.803Z,18.00
2022-10-20T16:51:25.299Z,16.73
2022-10-20T16:54:05.954Z,18.33
2022-10-20T16:56:52.878Z,13.50
2022-10-20T16:59:32.915Z,17.97
2022-10-20T17:02:19.874Z,13.37
2022-10-20T17:05:09.274Z,17.43
2022-10-20T17:07:50.608Z,17.10
2022-10-20T17:10:36.867Z,18.23
2022-10-20T17:13:17.736Z,17.03
2022-10-20T17:16:03.883Z,15.47
2022-10-20T17:18:44.867Z,16.97
2022-10-20T17:21:31.883Z,16.20
2022-10-20T17:24:13.569Z,17.80
2022-10-20T17:27:00.874Z,15.70
2022-10-20T17:29:47.887Z,14.17
2022-10-20T17:32:27.940Z,16.53
2022-10-20T17:35:15.880Z,14.33
2022-10-20T17:37:55.953Z,15.93
2022-10-20T17:40:45.018Z,17.53
2022-10-20T17:43:25.952Z,13.33
2022-10-20T17:46:20.904Z,13.50
2022-10-20T17:49:01.568Z,16.77
2022-10-20T17:51:49.875Z,14.30
2022-10-20T17:54:36.909Z,15.07
2022-10-20T17:57:17.547Z,15.13
2022-10-20T18:00:08.464Z,14.10
2022-10-20T18:02:52.028Z,14.43
2022-10-20T18:05:38.930Z,16.50
2022-10-20T18:08:19.545Z,14.03
2022-10-20T18:11:05.894Z,17.40
2022-10-20T18:13:47.318Z,16.37
2022-10-20T18:16:34.951Z,18.30
2022-10-20T18:19:25.907Z,17.10
2022-10-20T18:22:12.907Z,18.30
2022-10-20T18:24:59.933Z,18.20
2022-10-20T18:27:39.994Z,16.83
2022-10-20T18:30:26.890Z,16.33
2022-10-20T18:33:06.976Z,19.63
2022-10-20T18:35:53.903Z,23.50
2022-10-20T18:38:34.010Z,19.07
2022-10-20T18:41:26.919Z,20.03
2022-10-20T18:44:09.917Z,22.33
2022-10-20T18:46:58.004Z,18.30
2022-10-20T18:49:38.065Z,20.40
2022-10-20T18:52:24.952Z,19.33
2022-10-20T18:55:11.914Z,18.53
2022-10-20T18:57:52.615Z,19.07
2022-10-20T19:00:38.986Z,19.67
2022-10-20T19:03:19.627Z,13.87
2022-10-20T19:06:24.946Z,22.50
2022-10-20T19:09:10.365Z,19.60
2022-10-20T19:11:51.949Z,20.80
2022-10-20T19:14:39.941Z,20.30
2022-10-20T19:17:20.573Z,19.40
2022-10-20T19:20:07.943Z,22.47
2022-10-20T19:22:48.582Z,18.47
2022-10-20T19:25:34.945Z,24.30
2022-10-20T19:28:15.563Z,21.43
2022-10-20T19:31:01.956Z,20.43
2022-10-20T19:33:42.632Z,21.13
2022-10-20T19:36:29.953Z,20.77
2022-10-20T19:39:19.008Z,24.57
2022-10-20T19:42:06.939Z,19.80
2022-10-20T19:44:54.947Z,19.00
2022-10-20T19:47:41.943Z,19.77
2022-10-20T19:50:28.955Z,18.83
2022-10-20T19:53:09.007Z,20.63
2022-10-20T19:55:57.980Z,17.60
2022-10-20T19:58:40.253Z,16.77
2022-10-20T20:01:29.068Z,13.17
2022-10-20T20:04:16.974Z,13.33
2022-10-20T20:07:01.878Z,10.77
2022-10-20T20:09:51.632Z,16.47
2022-10-20T20:12:38.955Z,14.63
2022-10-20T20:15:25.979Z,13.27
2022-10-20T20:18:06.621Z,13.50
2022-10-20T20:20:54.965Z,23.43
2022-10-20T20:23:58.424Z,25.90
2022-10-20T20:26:42.982Z,27.47
2022-10-20T20:29:29.999Z,31.30
2022-10-20T20:32:10.612Z,23.27
2022-10-20T20:34:56.982Z,28.87
2022-10-20T20:37:37.946Z,26.33
2022-10-20T20:40:25.963Z,24.17
2022-10-20T20:43:06.616Z,24.20
2022-10-20T20:45:52.990Z,30.23
2022-10-20T20:48:43.020Z,24.00
2022-10-20T20:51:25.124Z,22.70
2022-10-20T20:54:11.986Z,29.80
2022-10-20T20:56:52.034Z,20.53
2022-10-20T20:59:38.978Z,22.83
2022-10-20T21:02:25.994Z,22.30
2022-10-20T21:05:13.983Z,22.07
2022-10-20T21:07:54.080Z,20.63
2022-10-20T21:10:45.017Z,23.17
2022-10-20T21:13:25.061Z,26.00
2022-10-20T21:16:19.012Z,21.87
2022-10-20T21:19:09.996Z,23.57
2022-10-20T21:21:56.992Z,27.47
2022-10-20T21:24:44.020Z,24.57
2022-10-20T21:27:24.655Z,25.67
2022-10-20T21:30:11.027Z,22.17
2022-10-20T21:32:51.636Z,23.23
2022-10-20T21:35:38.024Z,26.57
2022-10-20T21:38:18.626Z,23.13
2022-10-20T21:41:05.031Z,26.53
2022-10-20T21:43:55.040Z,28.87
2022-10-20T21:46:49.284Z,23.40
2022-10-20T21:49:36.035Z,26.73
2022-10-20T21:52:16.127Z,25.17
2022-10-20T21:55:03.034Z,21.63
2022-10-20T21:57:43.083Z,21.60
2022-10-20T22:00:30.032Z,29.10
2022-10-20T22:03:11.081Z,23.63
2022-10-20T22:05:59.010Z,22.10
2022-10-20T22:08:55.123Z,22.60
2022-10-20T22:11:43.354Z,22.07
2022-10-20T22:14:30.039Z,20.37
2022-10-20T22:17:10.816Z,23.30
2022-10-20T22:19:57.029Z,21.30
2022-10-20T22:22:44.023Z,24.50
2022-10-20T22:25:31.047Z,28.23
2022-10-20T22:28:11.719Z,22.53
2022-10-20T22:30:58.062Z,19.67
2022-10-20T22:33:45.068Z,22.90
2022-10-20T22:36:26.162Z,22.77
2022-10-20T22:39:15.214Z,24.00
2022-10-20T22:41:55.127Z,22.63
2022-10-20T22:44:42.059Z,23.77
2022-10-20T22:47:29.049Z,28.70
2022-10-20T22:50:16.034Z,23.30
2022-10-20T22:52:56.116Z,23.37
2022-10-20T22:55:44.066Z,23.80
2022-10-20T22:58:24.132Z,17.63
2022-10-20T23:01:26.101Z,19.60
2022-10-20T23:04:13.050Z,22.23
2022-10-20T23:09:51.052Z,24.97
2022-10-20T23:12:33.007Z,22.47
2022-10-20T23:15:21.076Z,22.57
2022-10-20T23:18:08.129Z,22.47
2022-10-20T23:20:48.065Z,24.47
2022-10-20T23:23:29.066Z,22.47
2022-10-20T23:26:16.082Z,27.83
2022-10-20T23:29:03.046Z,20.73
2022-10-20T23:31:50.072Z,24.13
2022-10-20T23:34:37.078Z,26.30
2022-10-20T23:37:19.724Z,20.43
2022-10-20T23:40:06.077Z,27.80
2022-10-20T23:42:46.147Z,23.67
2022-10-20T23:45:35.563Z,24.13
2022-10-20T23:48:17.140Z,25.03
2022-10-20T23:51:04.109Z,17.97
2022-10-20T23:53:51.071Z,21.00
2022-10-20T23:56:31.712Z,24.50
2022-10-20T23:59:18.091Z,23.03
